Time;durP1;ratioP1;P1;durP2;ratioP2;P2;SDS_P1;SDS_P2;PMS_P1;PMS_P2;Temp;Humidity;BMP_temperature;BMP_pressure;BME280_temperature;BME280_humidity;BME280_pressure;Samples;Min_cycle;Max_cycle;Signal;HPM_P1;HPM_P2
2022/02/14 00:01:14;;;;;;;3.78;3.47;;;;;;;;;;6151010;23;20344;-82
2022/02/14 00:03:44;;;;;;;7.25;5.15;;;;;;;;;;6126437;23;20032;-82
2022/02/14 00:06:13;;;;;;;6.90;4.03;;;;;;;;;;6187764;23;20013;-82
2022/02/14 00:08:44;;;;;;;5.40;5.07;;;;;;;;;;6153979;23;20021;-82
2022/02/14 00:11:13;;;;;;;6.93;3.45;;;;;;;;;;6186651;23;20425;-82
2022/02/14 00:13:42;;;;;;;4.85;4.30;;;;;;;;;;6187494;23;20017;-82
2022/02/14 00:16:11;;;;;;;7.70;4.57;;;;;;;;;;6156686;23;20025;-82
2022/02/14 00:18:39;;;;;;;4.47;3.67;;;;;;;;;;6161409;23;20021;-82
2022/02/14 00:21:07;;;;;;;4.00;3.63;;;;;;;;;;6152240;23;20028;-82
2022/02/14 00:23:36;;;;;;;4.35;3.92;;;;;;;;;;6184926;23;20024;-82
2022/02/14 00:26:04;;;;;;;5.65;4.32;;;;;;;;;;6187956;23;20013;-82
2022/02/14 00:28:32;;;;;;;3.58;3.35;;;;;;;;;;6125157;23;20021;-82
2022/02/14 00:31:01;;;;;;;15.65;5.03;;;;;;;;;;6161409;23;20024;-82
2022/02/14 00:33:30;;;;;;;5.88;4.25;;;;;;;;;;6176794;23;20033;-82
2022/02/14 00:36:02;;;;;;;4.95;4.07;;;;;;;;;;6183309;23;20029;-82
2022/02/14 00:38:30;;;;;;;3.75;3.55;;;;;;;;;;6161121;23;20021;-82
2022/02/14 00:40:58;;;;;;;5.40;3.90;;;;;;;;;;6153179;23;20420;-83
2022/02/14 00:43:27;;;;;;;6.40;5.80;;;;;;;;;;6184743;23;20024;-82
2022/02/14 00:45:55;;;;;;;5.57;4.55;;;;;;;;;;6161786;23;20013;-82
2022/02/14 00:48:25;;;;;;;3.90;3.10;;;;;;;;;;6155787;23;20021;-83
2022/02/14 00:50:54;;;;;;;4.35;4.05;;;;;;;;;;6120182;23;20026;-82
2022/02/14 00:53:23;;;;;;;10.57;4.90;;;;;;;;;;6091785;23;20018;-82
2022/02/14 00:55:52;;;;;;;5.95;4.03;;;;;;;;;;6119203;23;20104;-82
2022/02/14 00:58:20;;;;;;;12.13;5.20;;;;;;;;;;6156802;23;20576;-82
2022/02/14 01:00:48;;;;;;;9.88;5.32;;;;;;;;;;6149712;23;20033;-82
2022/02/14 01:03:16;;;;;;;5.55;5.05;;;;;;;;;;6157102;23;20020;-82
2022/02/14 01:05:44;;;;;;;7.22;3.70;;;;;;;;;;6157771;23;20028;-82
2022/02/14 01:08:13;;;;;;;5.10;4.13;;;;;;;;;;6145684;23;20022;-82
2022/02/14 01:10:41;;;;;;;3.30;3.03;;;;;;;;;;6116959;23;20092;-82
2022/02/14 01:13:09;;;;;;;3.88;3.55;;;;;;;;;;6148475;23;20060;-82
2022/02/14 01:15:37;;;;;;;5.95;3.88;;;;;;;;;;6154492;23;20036;-82
2022/02/14 01:18:05;;;;;;;4.55;4.13;;;;;;;;;;6157873;23;20021;-82
2022/02/14 01:20:33;;;;;;;5.20;3.53;;;;;;;;;;6150984;23;20025;-82
2022/02/14 01:23:01;;;;;;;4.68;3.22;;;;;;;;;;6156142;23;20033;-82
2022/02/14 01:25:29;;;;;;;5.47;3.30;;;;;;;;;;6140362;23;20812;-83
2022/02/14 01:27:57;;;;;;;3.35;2.70;;;;;;;;;;6150201;23;20026;-82
2022/02/14 01:30:28;;;;;;;4.72;3.17;;;;;;;;;;6157416;23;20014;-82
2022/02/14 01:33:05;;;;;;;5.35;4.45;;;;;;;;;;6136680;23;20333;-82
2022/02/14 01:35:33;;;;;;;6.00;5.28;;;;;;;;;;6156574;23;20025;-83
2022/02/14 01:38:02;;;;;;;3.22;2.97;;;;;;;;;;6159057;23;20036;-82
2022/02/14 01:40:30;;;;;;;4.72;3.38;;;;;;;;;;6153401;23;20029;-82
2022/02/14 01:42:58;;;;;;;2.50;1.65;;;;;;;;;;6159888;23;20018;-82
2022/02/14 01:45:26;;;;;;;2.92;2.72;;;;;;;;;;6142090;23;20053;-82
2022/02/14 01:47:54;;;;;;;4.07;3.75;;;;;;;;;;6154517;23;20028;-82
2022/02/14 01:50:22;;;;;;;6.68;3.63;;;;;;;;;;6142348;23;20032;-82
2022/02/14 01:52:54;;;;;;;3.45;2.78;;;;;;;;;;6153044;23;20068;-82
2022/02/14 01:55:26;;;;;;;3.55;3.35;;;;;;;;;;6179296;23;20013;-82
2022/02/14 01:57:54;;;;;;;2.70;2.50;;;;;;;;;;6152379;23;20017;-83
2022/02/14 02:00:23;;;;;;;3.53;3.30;;;;;;;;;;6182605;23;20469;-82
2022/02/14 02:02:51;;;;;;;2.75;2.60;;;;;;;;;;6189323;23;20013;-82
2022/02/14 02:05:19;;;;;;;3.67;3.30;;;;;;;;;;6153475;23;20032;-81
2022/02/14 02:07:48;;;;;;;2.90;2.70;;;;;;;;;;6159675;23;20353;-82
2022/02/14 02:10:16;;;;;;;2.50;2.40;;;;;;;;;;6188911;23;20024;-82
2022/02/14 02:12:48;;;;;;;3.50;2.67;;;;;;;;;;6182373;23;20073;-82
2022/02/14 02:15:16;;;;;;;2.80;2.63;;;;;;;;;;6186803;23;20020;-82
2022/02/14 02:17:45;;;;;;;3.33;2.72;;;;;;;;;;6189655;23;20013;-82
2022/02/14 02:20:14;;;;;;;2.90;2.67;;;;;;;;;;6183616;23;20021;-82
2022/02/14 02:22:42;;;;;;;3.40;3.10;;;;;;;;;;6189074;23;20028;-82
2022/02/14 02:25:12;;;;;;;4.88;4.47;;;;;;;;;;6179154;23;20025;-82
2022/02/14 02:27:42;;;;;;;4.43;2.65;;;;;;;;;;6127415;23;20040;-82
2022/02/14 02:30:12;;;;;;;5.25;3.17;;;;;;;;;;6126604;23;20021;-82
2022/02/14 02:32:41;;;;;;;5.70;3.10;;;;;;;;;;6127008;23;20025;-82
2022/02/14 02:35:12;;;;;;;3.35;3.13;;;;;;;;;;6161724;23;20017;-82
2022/02/14 02:37:40;;;;;;;3.38;3.15;;;;;;;;;;6162578;23;20024;-82
2022/02/14 02:40:09;;;;;;;5.05;3.40;;;;;;;;;;6183934;23;20456;-82
2022/02/14 02:42:40;;;;;;;3.28;3.08;;;;;;;;;;6163119;23;20562;-82
2022/02/14 02:45:08;;;;;;;3.80;3.50;;;;;;;;;;6151532;23;20036;-82
2022/02/14 02:47:36;;;;;;;3.15;2.70;;;;;;;;;;6159585;23;20032;-82
2022/02/14 02:50:05;;;;;;;2.97;2.78;;;;;;;;;;6182129;23;20017;-82
2022/02/14 02:52:33;;;;;;;6.80;4.32;;;;;;;;;;6127109;23;20028;-82
2022/02/14 02:55:02;;;;;;;4.10;3.42;;;;;;;;;;6188160;23;20020;-82
2022/02/14 02:57:31;;;;;;;2.50;2.30;;;;;;;;;;6176445;23;20025;-82
2022/02/14 02:59:59;;;;;;;6.90;3.70;;;;;;;;;;6182839;23;20464;-82
2022/02/14 03:02:27;;;;;;;4.00;3.13;;;;;;;;;;6188645;23;20017;-82
2022/02/14 03:04:55;;;;;;;5.00;2.28;;;;;;;;;;6153880;23;20028;-82
2022/02/14 03:07:23;;;;;;;2.88;2.70;;;;;;;;;;6160214;23;20013;-82
2022/02/14 03:09:51;;;;;;;1.63;1.52;;;;;;;;;;6187569;23;20013;-82
2022/02/14 03:12:20;;;;;;;3.83;2.90;;;;;;;;;;6182687;23;20029;-82
2022/02/14 03:14:49;;;;;;;2.88;2.58;;;;;;;;;;6161713;23;20021;-82
2022/02/14 03:17:17;;;;;;;2.22;2.13;;;;;;;;;;6127008;23;20430;-82
2022/02/14 03:19:45;;;;;;;6.22;3.22;;;;;;;;;;6158547;23;20031;-82
2022/02/14 03:22:13;;;;;;;3.50;3.22;;;;;;;;;;6162507;23;20024;-82
2022/02/14 03:24:41;;;;;;;4.05;3.60;;;;;;;;;;6126738;23;20464;-82
2022/02/14 03:27:09;;;;;;;2.90;2.42;;;;;;;;;;6187140;23;20020;-82
2022/02/14 03:29:37;;;;;;;2.20;2.10;;;;;;;;;;6161564;23;20491;-82
2022/02/14 03:32:05;;;;;;;3.15;2.85;;;;;;;;;;6183366;23;20033;-82
2022/02/14 03:34:33;;;;;;;3.85;2.80;;;;;;;;;;6161382;23;20463;-82
2022/02/14 03:37:01;;;;;;;3.38;3.17;;;;;;;;;;6127026;23;20060;-82
2022/02/14 03:39:29;;;;;;;3.40;3.03;;;;;;;;;;6158799;23;20021;-82
2022/02/14 03:41:58;;;;;;;2.30;2.20;;;;;;;;;;6126896;23;20028;-82
2022/02/14 03:44:26;;;;;;;3.70;2.15;;;;;;;;;;6126263;23;20043;-82
2022/02/14 03:46:54;;;;;;;4.82;3.90;;;;;;;;;;6126708;23;20365;-83
2022/02/14 03:49:22;;;;;;;3.03;2.83;;;;;;;;;;6127478;23;20535;-82
2022/02/14 03:51:50;;;;;;;3.22;2.65;;;;;;;;;;6127402;23;20025;-82
2022/02/14 03:54:18;;;;;;;2.40;2.20;;;;;;;;;;6113047;23;20013;-82
2022/02/14 03:56:46;;;;;;;2.35;2.15;;;;;;;;;;6120781;23;20060;-82
2022/02/14 03:59:14;;;;;;;3.05;2.85;;;;;;;;;;6112247;23;20048;-82
2022/02/14 04:01:42;;;;;;;7.43;2.67;;;;;;;;;;6162095;23;20020;-82
2022/02/14 04:04:10;;;;;;;3.47;2.72;;;;;;;;;;6126743;23;20025;-82
2022/02/14 04:06:39;;;;;;;5.22;2.65;;;;;;;;;;6189056;23;20013;-82
2022/02/14 04:09:08;;;;;;;3.88;3.40;;;;;;;;;;6153164;23;20021;-83
2022/02/14 04:11:37;;;;;;;3.80;3.50;;;;;;;;;;6126960;23;20017;-83
2022/02/14 04:14:06;;;;;;;1.55;1.52;;;;;;;;;;6127521;23;20017;-82
2022/02/14 04:16:35;;;;;;;3.47;3.25;;;;;;;;;;6126924;23;20025;-82
2022/02/14 04:19:09;;;;;;;1.75;1.65;;;;;;;;;;6126509;23;20021;-82
2022/02/14 04:21:38;;;;;;;2.25;2.10;;;;;;;;;;6127758;23;20017;-82
2022/02/14 04:24:07;;;;;;;2.33;2.13;;;;;;;;;;6155521;23;20025;-82
2022/02/14 04:26:36;;;;;;;2.30;2.10;;;;;;;;;;6127030;23;20021;-82
2022/02/14 04:29:05;;;;;;;1.83;1.77;;;;;;;;;;6126587;23;20020;-82
2022/02/14 04:31:33;;;;;;;2.30;2.20;;;;;;;;;;6185733;23;20017;-83
2022/02/14 04:34:02;;;;;;;2.95;1.77;;;;;;;;;;6162223;23;20017;-82
2022/02/14 04:36:36;;;;;;;9.05;2.03;;;;;;;;;;6151496;23;20025;-82
2022/02/14 04:39:13;;;;;;;1.95;1.85;;;;;;;;;;6152374;23;20017;-83
2022/02/14 04:41:42;;;;;;;1.80;1.70;;;;;;;;;;6188428;23;20016;-83
2022/02/14 04:44:10;;;;;;;1.30;1.23;;;;;;;;;;6156776;23;20032;-83
2022/02/14 04:46:39;;;;;;;2.22;1.92;;;;;;;;;;6162092;23;20024;-83
2022/02/14 04:49:07;;;;;;;2.25;1.70;;;;;;;;;;6127148;23;20695;-83
2022/02/14 04:51:36;;;;;;;1.85;1.75;;;;;;;;;;6184932;23;20047;-83
2022/02/14 04:54:04;;;;;;;1.90;1.80;;;;;;;;;;6174363;23;20036;-83
2022/02/14 04:56:33;;;;;;;1.80;1.70;;;;;;;;;;6126372;23;20381;-83
2022/02/14 04:59:01;;;;;;;2.00;1.80;;;;;;;;;;6151511;23;20029;-83
2022/02/14 05:01:29;;;;;;;2.95;2.60;;;;;;;;;;6151519;23;20036;-82
2022/02/14 05:03:57;;;;;;;4.25;3.35;;;;;;;;;;6183942;23;20033;-83
2022/02/14 05:06:25;;;;;;;2.92;2.53;;;;;;;;;;6188641;23;20062;-83
2022/02/14 05:08:53;;;;;;;4.65;1.50;;;;;;;;;;6179482;23;20519;-83
2022/02/14 05:11:22;;;;;;;1.70;1.63;;;;;;;;;;6186324;23;20021;-83
2022/02/14 05:13:51;;;;;;;1.27;1.27;;;;;;;;;;6161849;23;20017;-83
2022/02/14 05:16:23;;;;;;;2.03;1.85;;;;;;;;;;6181854;23;20021;-81
2022/02/14 05:18:52;;;;;;;2.25;2.03;;;;;;;;;;6187895;23;20542;-82
2022/02/14 05:21:20;;;;;;;1.98;1.88;;;;;;;;;;6175774;23;20055;-82
2022/02/14 05:23:51;;;;;;;2.40;2.10;;;;;;;;;;6183289;23;20036;-82
2022/02/14 05:26:19;;;;;;;1.98;1.88;;;;;;;;;;6187618;23;20017;-83
2022/02/14 05:28:47;;;;;;;2.03;1.92;;;;;;;;;;6179734;23;20028;-83
2022/02/14 05:31:15;;;;;;;2.10;1.88;;;;;;;;;;6160010;23;20024;-82
2022/02/14 05:33:45;;;;;;;3.35;3.05;;;;;;;;;;6151794;23;20024;-82
2022/02/14 05:36:13;;;;;;;2.83;2.58;;;;;;;;;;6182313;23;20021;-82
2022/02/14 05:38:41;;;;;;;3.33;2.17;;;;;;;;;;6161222;23;20441;-82
2022/02/14 05:41:09;;;;;;;2.30;2.10;;;;;;;;;;6179303;23;20041;-83
2022/02/14 05:43:37;;;;;;;7.00;1.80;;;;;;;;;;6182248;23;20735;-81
2022/02/14 05:46:13;;;;;;;1.55;1.45;;;;;;;;;;6187705;23;20017;-82
2022/02/14 05:48:43;;;;;;;5.20;2.03;;;;;;;;;;6154000;23;20025;-82
2022/02/14 05:51:11;;;;;;;2.30;1.80;;;;;;;;;;6160127;23;20021;-82
2022/02/14 05:53:40;;;;;;;2.38;2.17;;;;;;;;;;6126938;23;20484;-82
2022/02/14 05:56:08;;;;;;;1.63;1.52;;;;;;;;;;6182452;23;20032;-83
2022/02/14 05:58:45;;;;;;;2.40;2.28;;;;;;;;;;6125990;23;20833;-80
2022/02/14 06:01:13;;;;;;;2.50;2.35;;;;;;;;;;6178399;23;20021;-81
2022/02/14 06:03:41;;;;;;;2.40;2.10;;;;;;;;;;6184493;23;20040;-78
2022/02/14 06:06:09;;;;;;;1.98;1.88;;;;;;;;;;6187854;23;20028;-78
2022/02/14 06:08:38;;;;;;;2.95;2.17;;;;;;;;;;6179836;23;20330;-78
2022/02/14 06:11:08;;;;;;;3.97;3.67;;;;;;;;;;6186878;23;20021;-78
2022/02/14 06:13:36;;;;;;;1.98;1.83;;;;;;;;;;6187365;23;20017;-80
2022/02/14 06:16:04;;;;;;;1.48;1.48;;;;;;;;;;6170991;23;20027;-79
2022/02/14 06:18:32;;;;;;;1.95;1.85;;;;;;;;;;6149796;23;20017;-78
2022/02/14 06:21:00;;;;;;;2.60;2.40;;;;;;;;;;6150966;23;20025;-79
2022/02/14 06:23:28;;;;;;;2.25;2.05;;;;;;;;;;6159585;23;20028;-81
2022/02/14 06:25:56;;;;;;;2.05;1.95;;;;;;;;;;6162882;23;20512;-79
2022/02/14 06:28:24;;;;;;;2.17;1.88;;;;;;;;;;6182668;23;20065;-81
2022/02/14 06:30:52;;;;;;;2.75;2.55;;;;;;;;;;6189608;23;20025;-78
2022/02/14 06:33:20;;;;;;;1.73;1.63;;;;;;;;;;6179201;23;20025;-84
2022/02/14 06:35:48;;;;;;;1.65;1.55;;;;;;;;;;6185120;23;20040;-82
2022/02/14 06:38:16;;;;;;;1.52;1.42;;;;;;;;;;6128881;23;20017;-83
2022/02/14 06:40:46;;;;;;;3.13;2.20;;;;;;;;;;6181296;23;20025;-84
2022/02/14 06:43:18;;;;;;;2.97;2.67;;;;;;;;;;6179263;23;20017;-84
2022/02/14 06:45:46;;;;;;;2.10;2.00;;;;;;;;;;6163529;23;20024;-86
2022/02/14 06:48:14;;;;;;;1.55;1.45;;;;;;;;;;6183723;23;20021;-84
2022/02/14 06:50:44;;;;;;;2.28;2.08;;;;;;;;;;6180194;23;20017;-84
2022/02/14 06:53:12;;;;;;;1.20;1.20;;;;;;;;;;6179474;23;20025;-84
2022/02/14 06:55:40;;;;;;;1.80;1.70;;;;;;;;;;6186396;23;20029;-84
2022/02/14 06:58:08;;;;;;;2.35;1.63;;;;;;;;;;6189361;23;20471;-85
2022/02/14 07:00:39;;;;;;;2.70;2.50;;;;;;;;;;6156483;23;20024;-84
2022/02/14 07:03:08;;;;;;;3.08;2.35;;;;;;;;;;6188311;23;20016;-84
2022/02/14 07:05:36;;;;;;;1.30;1.30;;;;;;;;;;6189942;23;20732;-84
2022/02/14 07:08:04;;;;;;;2.83;2.63;;;;;;;;;;6185137;23;20024;-85
2022/02/14 07:10:32;;;;;;;3.25;2.00;;;;;;;;;;6189829;23;20013;-85
2022/02/14 07:13:01;;;;;;;12.32;4.43;;;;;;;;;;6180622;23;20029;-84
2022/02/14 07:15:29;;;;;;;1.83;1.73;;;;;;;;;;6186562;23;20029;-84
2022/02/14 07:17:57;;;;;;;1.75;1.65;;;;;;;;;;6188183;23;20028;-86
2022/02/14 07:20:25;;;;;;;3.25;2.22;;;;;;;;;;6151234;23;20751;-86
2022/02/14 07:22:53;;;;;;;2.67;2.25;;;;;;;;;;6188235;23;20021;-86
2022/02/14 07:25:21;;;;;;;1.92;1.75;;;;;;;;;;6177992;23;20028;-86
2022/02/14 07:27:50;;;;;;;1.85;1.65;;;;;;;;;;6125956;23;20028;-84
2022/02/14 07:30:18;;;;;;;2.08;1.88;;;;;;;;;;6187814;23;20024;-85
2022/02/14 07:32:46;;;;;;;2.35;2.25;;;;;;;;;;6150689;23;20036;-84
2022/02/14 07:35:14;;;;;;;5.25;1.58;;;;;;;;;;6187074;23;20032;-84
2022/02/14 07:37:44;;;;;;;1.92;1.83;;;;;;;;;;6177650;23;20025;-85
2022/02/14 07:40:13;;;;;;;2.15;1.90;;;;;;;;;;6182653;23;20029;-84
2022/02/14 07:42:45;;;;;;;3.22;2.55;;;;;;;;;;6188279;23;20017;-84
2022/02/14 07:45:14;;;;;;;2.72;2.05;;;;;;;;;;6125277;23;20048;-85
2022/02/14 07:47:42;;;;;;;2.35;2.22;;;;;;;;;;6184955;23;20025;-85
2022/02/14 07:50:13;;;;;;;2.95;2.58;;;;;;;;;;6127223;23;20033;-84
2022/02/14 07:52:41;;;;;;;5.17;2.00;;;;;;;;;;6126402;23;20040;-84
2022/02/14 07:55:09;;;;;;;3.58;2.75;;;;;;;;;;6126477;23;20034;-83
2022/02/14 07:57:38;;;;;;;2.13;1.98;;;;;;;;;;6161863;23;20013;-84
2022/02/14 08:00:07;;;;;;;2.30;2.10;;;;;;;;;;6125670;23;20032;-84
2022/02/14 08:02:41;;;;;;;5.10;2.35;;;;;;;;;;6125880;23;20040;-84
2022/02/14 08:05:11;;;;;;;2.70;2.50;;;;;;;;;;6126335;23;20024;-84
2022/02/14 08:07:39;;;;;;;3.13;1.73;;;;;;;;;;6125971;23;20024;-84
2022/02/14 08:10:27;;;;;;;6.93;1.80;;;;;;;;;;6165900;23;20444;-81
2022/02/14 08:12:57;;;;;;;1.80;1.70;;;;;;;;;;6155343;23;20484;-82
2022/02/14 08:15:26;;;;;;;2.40;2.25;;;;;;;;;;6151287;23;20733;-83
2022/02/14 08:18:04;;;;;;;2.15;2.00;;;;;;;;;;6162114;23;20448;-84
2022/02/14 08:20:41;;;;;;;5.97;2.65;;;;;;;;;;6123867;23;20028;-84
2022/02/14 08:23:09;;;;;;;3.42;3.13;;;;;;;;;;6126176;23;20021;-82
2022/02/14 08:25:39;;;;;;;3.22;2.25;;;;;;;;;;6187191;23;20013;-82
2022/02/14 08:28:09;;;;;;;4.00;2.80;;;;;;;;;;6180839;23;20021;-82
2022/02/14 08:30:45;;;;;;;3.15;2.83;;;;;;;;;;6177674;23;20017;-82
2022/02/14 08:33:19;;;;;;;2.70;1.92;;;;;;;;;;6150989;23;20564;-81
2022/02/14 08:35:52;;;;;;;2.83;1.50;;;;;;;;;;6126057;23;20017;-82
2022/02/14 08:38:24;;;;;;;3.17;1.85;;;;;;;;;;6150807;23;20013;-83
2022/02/14 08:40:52;;;;;;;1.98;1.75;;;;;;;;;;6125699;23;20452;-82
2022/02/14 08:43:21;;;;;;;2.78;2.33;;;;;;;;;;6184533;23;20020;-82
2022/02/14 08:46:04;;;;;;;3.33;2.33;;;;;;;;;;6161001;23;20463;-82
2022/02/14 08:48:32;;;;;;;1.85;1.75;;;;;;;;;;6153766;23;20025;-82
2022/02/14 08:51:02;;;;;;;2.13;1.98;;;;;;;;;;6187787;23;20013;-82
2022/02/14 08:53:33;;;;;;;4.88;2.70;;;;;;;;;;6151036;23;20606;-82
2022/02/14 08:56:06;;;;;;;6.20;2.55;;;;;;;;;;6126408;23;20021;-81
2022/02/14 08:58:36;;;;;;;2.20;2.10;;;;;;;;;;6136008;23;20024;-81
2022/02/14 09:01:05;;;;;;;2.80;2.50;;;;;;;;;;6109055;23;20037;-82
2022/02/14 09:03:33;;;;;;;1.90;1.77;;;;;;;;;;6144760;23;20025;-82
2022/02/14 09:06:02;;;;;;;3.70;2.95;;;;;;;;;;6161423;23;20453;-82
2022/02/14 09:08:32;;;;;;;3.90;1.63;;;;;;;;;;6150255;23;20025;-82
2022/02/14 09:11:00;;;;;;;3.10;2.78;;;;;;;;;;6161382;23;20024;-82
2022/02/14 09:13:31;;;;;;;7.22;2.35;;;;;;;;;;6149323;23;20021;-82
2022/02/14 09:15:59;;;;;;;4.18;3.35;;;;;;;;;;6156226;23;20032;-82
2022/02/14 09:18:28;;;;;;;3.20;2.90;;;;;;;;;;6150238;23;20024;-82
2022/02/14 09:21:13;;;;;;;2.20;1.45;;;;;;;;;;6151023;23;20017;-82
2022/02/14 09:23:42;;;;;;;2.65;2.45;;;;;;;;;;6157205;23;20021;-82
2022/02/14 09:26:10;;;;;;;2.83;2.03;;;;;;;;;;6187469;23;20013;-83
2022/02/14 09:28:39;;;;;;;2.63;1.83;;;;;;;;;;6178937;23;20032;-82
2022/02/14 09:31:07;;;;;;;2.13;2.03;;;;;;;;;;6185988;23;20013;-82
2022/02/14 09:33:36;;;;;;;10.40;2.53;;;;;;;;;;6187207;23;20013;-82
2022/02/14 09:36:06;;;;;;;3.50;3.00;;;;;;;;;;6182232;23;20036;-82
2022/02/14 09:38:35;;;;;;;3.25;1.90;;;;;;;;;;6159869;23;20020;-82
2022/02/14 09:41:04;;;;;;;4.55;3.17;;;;;;;;;;6177741;23;20356;-84
2022/02/14 09:43:35;;;;;;;7.13;2.80;;;;;;;;;;6183597;23;20025;-82
2022/02/14 09:46:05;;;;;;;2.53;2.17;;;;;;;;;;6186266;23;20260;-82
2022/02/14 09:48:35;;;;;;;4.90;1.88;;;;;;;;;;6178554;23;20025;-81
2022/02/14 09:51:03;;;;;;;2.45;2.25;;;;;;;;;;6185406;23;20367;-83
2022/02/14 09:53:31;;;;;;;2.03;1.88;;;;;;;;;;6124579;23;20036;-80
2022/02/14 09:55:59;;;;;;;3.80;1.85;;;;;;;;;;6157967;23;20029;-79
2022/02/14 09:58:27;;;;;;;1.92;1.45;;;;;;;;;;6158835;23;20017;-82
2022/02/14 10:00:56;;;;;;;3.53;1.92;;;;;;;;;;6180613;23;20656;-85
2022/02/14 10:03:25;;;;;;;2.10;1.92;;;;;;;;;;6187487;23;20021;-79
2022/02/14 10:05:55;;;;;;;6.53;3.22;;;;;;;;;;6190175;23;20017;-85
2022/02/14 10:08:26;;;;;;;2.05;1.85;;;;;;;;;;6156048;23;20025;-85
2022/02/14 10:10:56;;;;;;;1.80;1.70;;;;;;;;;;6189629;23;20024;-83
2022/02/14 10:13:30;;;;;;;5.50;2.20;;;;;;;;;;6127049;23;20029;-81
2022/02/14 10:15:58;;;;;;;2.22;1.98;;;;;;;;;;6184123;23;20020;-85
2022/02/14 10:18:31;;;;;;;2.38;2.17;;;;;;;;;;6127225;23;20017;-83
2022/02/14 10:21:29;;;;;;;2.60;2.37;;;;;;;;;;6151407;23;20597;-83
2022/02/14 10:24:01;;;;;;;2.63;2.38;;;;;;;;;;6158286;23;20744;-82
2022/02/14 10:26:32;;;;;;;2.65;2.45;;;;;;;;;;6188671;23;20016;-84
2022/02/14 10:29:21;;;;;;;2.35;2.17;;;;;;;;;;6178732;23;20763;-80
2022/02/14 10:31:51;;;;;;;5.80;2.35;;;;;;;;;;6158353;23;20039;-80
2022/02/14 10:34:20;;;;;;;4.03;3.42;;;;;;;;;;6188484;23;20340;-80
2022/02/14 10:36:49;;;;;;;4.53;3.83;;;;;;;;;;6151011;23;20036;-80
2022/02/14 10:39:22;;;;;;;2.67;2.20;;;;;;;;;;6159659;23;20565;-79
2022/02/14 10:42:01;;;;;;;3.22;3.00;;;;;;;;;;6188030;23;20020;-79
2022/02/14 10:47:23;;;;;;;2.85;2.22;;;;;;;;;;6184961;23;20012;-80
2022/02/14 10:50:04;;;;;;;2.72;2.10;;;;;;;;;;6155792;23;20027;-80
2022/02/14 10:52:37;;;;;;;2.35;2.15;;;;;;;;;;6127378;23;20040;-79
2022/02/14 10:55:06;;;;;;;2.40;2.20;;;;;;;;;;6176601;23;20523;-82
2022/02/14 10:57:35;;;;;;;3.78;2.97;;;;;;;;;;6152779;23;20028;-81
2022/02/14 11:00:08;;;;;;;2.70;2.25;;;;;;;;;;6140480;23;20037;-83
2022/02/14 11:02:37;;;;;;;3.72;2.10;;;;;;;;;;6184001;23;20017;-81
2022/02/14 11:05:06;;;;;;;2.47;2.28;;;;;;;;;;6168852;23;20040;-83
2022/02/14 11:07:34;;;;;;;8.43;2.35;;;;;;;;;;6186241;23;20025;-83
2022/02/14 11:10:04;;;;;;;3.50;2.85;;;;;;;;;;6127559;23;20032;-80
2022/02/14 11:12:35;;;;;;;4.80;2.15;;;;;;;;;;6152105;23;20580;-82
2022/02/14 11:15:05;;;;;;;5.53;2.35;;;;;;;;;;6113976;23;20381;-82
2022/02/14 11:17:34;;;;;;;2.72;2.50;;;;;;;;;;6150315;23;20103;-83
2022/02/14 11:20:07;;;;;;;4.70;2.35;;;;;;;;;;6151950;23;20032;-82
2022/02/14 11:22:36;;;;;;;3.03;2.70;;;;;;;;;;6128086;23;20025;-83
2022/02/14 11:25:06;;;;;;;6.18;3.22;;;;;;;;;;6115406;23;20033;-83
2022/02/14 11:27:45;;;;;;;3.03;2.70;;;;;;;;;;6151361;23;20416;-82
2022/02/14 11:30:17;;;;;;;3.47;2.83;;;;;;;;;;6151987;23;20336;-82
2022/02/14 11:33:02;;;;;;;3.72;2.53;;;;;;;;;;6154743;23;20464;-82
2022/02/14 11:35:31;;;;;;;5.45;1.92;;;;;;;;;;6185084;23;20017;-82
2022/02/14 11:38:01;;;;;;;2.08;1.95;;;;;;;;;;6188141;23;20013;-82
2022/02/14 11:40:38;;;;;;;11.18;3.53;;;;;;;;;;6127452;23;20040;-82
2022/02/14 11:43:09;;;;;;;3.58;2.67;;;;;;;;;;6166391;23;20348;-83
2022/02/14 11:45:39;;;;;;;2.88;2.20;;;;;;;;;;6188627;23;20024;-82
2022/02/14 11:48:24;;;;;;;6.68;1.88;;;;;;;;;;6102743;23;20025;-82
2022/02/14 11:51:13;;;;;;;3.25;2.95;;;;;;;;;;6145787;23;20449;-80
2022/02/14 11:53:47;;;;;;;3.55;2.60;;;;;;;;;;6129788;23;20463;-79
2022/02/14 11:56:23;;;;;;;13.38;3.08;;;;;;;;;;6121332;23;20025;-78
2022/02/14 11:58:54;;;;;;;7.90;2.63;;;;;;;;;;6129937;23;20020;-79
2022/02/14 12:01:22;;;;;;;19.75;3.22;;;;;;;;;;6147637;23;20021;-84
2022/02/14 12:03:51;;;;;;;5.30;2.40;;;;;;;;;;6121046;23;20017;-86
2022/02/14 12:06:19;;;;;;;3.53;3.22;;;;;;;;;;6130976;23;20021;-78
2022/02/14 12:09:02;;;;;;;5.28;2.70;;;;;;;;;;6150071;23;20481;-77
2022/02/14 12:11:46;;;;;;;4.82;3.80;;;;;;;;;;6154983;23;20044;-79
2022/02/14 12:14:18;;;;;;;3.30;2.97;;;;;;;;;;6130501;23;20013;-81
2022/02/14 12:22:42;;;;;;;4.93;2.72;;;;;;;;;;6121460;23;20025;-82
2022/02/14 12:25:10;;;;;;;3.08;2.88;;;;;;;;;;6147868;23;20025;-84
2022/02/14 12:27:38;;;;;;;2.88;2.20;;;;;;;;;;6117412;23;20026;-78
2022/02/14 12:30:17;;;;;;;7.70;5.63;;;;;;;;;;6129963;23;20033;-79
2022/02/14 12:32:58;;;;;;;3.67;3.38;;;;;;;;;;6150368;23;20376;-88
2022/02/14 12:35:40;;;;;;;3.47;2.97;;;;;;;;;;6096846;23;20036;-89
2022/02/14 12:38:08;;;;;;;2.95;2.33;;;;;;;;;;6097043;23;20441;-90
2022/02/14 12:40:51;;;;;;;7.95;2.85;;;;;;;;;;6099492;23;20033;-89
2022/02/14 12:43:25;;;;;;;2.92;2.15;;;;;;;;;;6095613;23;20471;-88
2022/02/14 12:45:59;;;;;;;3.70;3.17;;;;;;;;;;6131354;23;20013;-89
2022/02/14 12:48:27;;;;;;;3.60;2.92;;;;;;;;;;6072529;23;20026;-88
2022/02/14 12:50:55;;;;;;;3.00;2.75;;;;;;;;;;6187472;23;20021;-86
2022/02/14 12:53:23;;;;;;;3.00;2.03;;;;;;;;;;6176608;23;20021;-87
2022/02/14 12:56:11;;;;;;;4.22;2.80;;;;;;;;;;6126279;23;20021;-88
2022/02/14 12:58:53;;;;;;;3.67;3.40;;;;;;;;;;6187718;23;20017;-89
2022/02/14 13:01:43;;;;;;;2.03;1.92;;;;;;;;;;6150233;23;20029;-88
2022/02/14 13:04:13;;;;;;;4.05;2.97;;;;;;;;;;6125849;23;20024;-89
2022/02/14 13:06:56;;;;;;;3.85;2.42;;;;;;;;;;6161217;23;20017;-87
2022/02/14 13:09:31;;;;;;;4.97;3.75;;;;;;;;;;6148667;23;20029;-88
2022/02/14 13:12:01;;;;;;;5.85;2.78;;;;;;;;;;6125807;23;20029;-89
2022/02/14 13:14:34;;;;;;;3.03;2.10;;;;;;;;;;6126795;23;20024;-87
2022/02/14 13:17:10;;;;;;;9.65;4.22;;;;;;;;;;6148743;23;20024;-89
2022/02/14 13:19:46;;;;;;;3.63;2.70;;;;;;;;;;6184783;23;20028;-82
2022/02/14 13:22:31;;;;;;;10.52;3.95;;;;;;;;;;6187132;23;20013;-84
2022/02/14 13:24:59;;;;;;;6.20;2.35;;;;;;;;;;6125667;23;20053;-83
2022/02/14 13:27:30;;;;;;;8.25;3.38;;;;;;;;;;6125607;23;20021;-85
2022/02/14 13:30:09;;;;;;;3.70;3.40;;;;;;;;;;6159788;23;20016;-83
2022/02/14 13:32:38;;;;;;;4.57;2.80;;;;;;;;;;6180213;23;20040;-86
2022/02/14 13:35:08;;;;;;;4.68;2.38;;;;;;;;;;6126193;23;20774;-87
2022/02/14 13:37:40;;;;;;;12.02;4.88;;;;;;;;;;6187250;23;20021;-88
2022/02/14 13:40:28;;;;;;;2.70;2.50;;;;;;;;;;6182448;23;20025;-86
2022/02/14 13:43:29;;;;;;;2.65;2.45;;;;;;;;;;6186074;23;20025;-85
2022/02/14 13:45:59;;;;;;;3.65;3.35;;;;;;;;;;6126047;23;20052;-87
2022/02/14 13:48:46;;;;;;;4.60;2.47;;;;;;;;;;6142542;23;20029;-87
2022/02/14 13:51:28;;;;;;;3.15;2.72;;;;;;;;;;6143854;23;20025;-86
2022/02/14 13:53:59;;;;;;;2.42;2.22;;;;;;;;;;6160306;23;20768;-88
2022/02/14 13:56:40;;;;;;;3.88;2.40;;;;;;;;;;6180084;23;20032;-87
2022/02/14 13:59:21;;;;;;;3.55;3.25;;;;;;;;;;6173971;23;20028;-87
2022/02/14 14:01:53;;;;;;;3.28;2.97;;;;;;;;;;6176433;23;20021;-88
2022/02/14 14:04:29;;;;;;;4.10;3.30;;;;;;;;;;6164624;23;20036;-87
2022/02/14 14:07:07;;;;;;;2.95;2.75;;;;;;;;;;6176556;23;20017;-88
2022/02/14 14:09:53;;;;;;;3.58;2.60;;;;;;;;;;6110954;23;20025;-86
2022/02/14 14:12:33;;;;;;;2.55;2.30;;;;;;;;;;6112943;23;20037;-88
2022/02/14 14:15:28;;;;;;;4.97;2.22;;;;;;;;;;6149630;23;20013;-87
2022/02/14 14:18:29;;;;;;;6.75;2.17;;;;;;;;;;6154557;23;20406;-87
2022/02/14 14:22:09;;;;;;;2.95;2.65;;;;;;;;;;6104845;23;20026;-87
2022/02/14 14:29:10;;;;;;;;;;;;;;;;;;;;;
2022/02/14 14:37:02;;;;;;;5.13;2.20;;;;;;;;;;5958701;23;20016;-88
2022/02/14 14:40:03;;;;;;;;;;;;;;;;;;;;;
2022/02/14 14:43:10;;;;;;;3.42;2.53;;;;;;;;;;5986429;23;20024;-88
2022/02/14 14:46:42;;;;;;;5.85;2.15;;;;;;;;;;5983016;23;20023;-88
2022/02/14 14:49:50;;;;;;;1.77;1.67;;;;;;;;;;5867690;24;20033;-88
2022/02/14 14:53:35;;;;;;;4.70;2.03;;;;;;;;;;5940929;23;20017;-88
2022/02/14 14:57:03;;;;;;;;;;;;;;;;;;;;;
2022/02/14 14:59:46;;;;;;;2.17;2.08;;;;;;;;;;5928505;23;20401;-80
2022/02/14 15:03:03;;;;;;;;;;;;;;;;;;;;;
2022/02/14 15:06:53;;;;;;;4.78;3.30;;;;;;;;;;5981317;23;20034;-88
2022/02/14 15:10:32;;;;;;;8.20;2.35;;;;;;;;;;6051046;23;20452;-88
2022/02/14 15:18:31;;;;;;;;;;;;;;;;;;;;;
2022/02/14 15:22:31;;;;;;;5.47;2.83;;;;;;;;;;5960901;23;20024;-87
2022/02/14 15:25:00;;;;;;;9.43;2.88;;;;;;;;;;6021285;23;20030;-87
2022/02/14 15:27:35;;;;;;;4.43;2.45;;;;;;;;;;6061887;23;20444;-87
2022/02/14 15:30:06;;;;;;;3.83;3.45;;;;;;;;;;6073033;23;20038;-87
2022/02/14 15:32:36;;;;;;;3.10;2.83;;;;;;;;;;6050257;23;20583;-88
2022/02/14 15:35:09;;;;;;;;;;;;;;;;;;6072294;23;20034;-85
2022/02/14 15:37:37;;;;;;;3.40;2.22;;;;;;;;;;6085773;23;20324;-80
2022/02/14 15:40:08;;;;;;;3.28;2.13;;;;;;;;;;6121646;23;20029;-78
2022/02/14 15:42:36;;;;;;;25.40;4.05;;;;;;;;;;6188073;23;20020;-82
2022/02/14 15:45:05;;;;;;;5.30;2.17;;;;;;;;;;6178306;23;20028;-82